Terminal Aerodrome Forecast
Issued by NWS

Home | Current Version | Previous Version | Text Only | Print | Product List | Glossary On
Versions: 1 2 3 4 5 6 7 8 9 10 11 12 13
254
FTUS46 KMTR 121123
TAFSNS
TAF
KSNS 121123Z 1212/1312 10010KT P6SM FEW200
     FM122200 31005KT P6SM FEW200
     FM130300 14004KT P6SM SKC
     FM130800 12009KT P6SM SKC=

USA.gov is the U.S. government's official web portal to all federal, state and local government web resources and services.